Portada
METAR-TAF:

METAR-TAF

Aeropuertos :

Aeropuerto de Lübeck

Lubeca, Alemania

latitud: 53-49N, longitud: 010-42E, altitud: 14 m

Observación

El informe se hizo hace 6 horas y 27 minutos, a las 20:20 UTC
Viento 2 kt con dirección variable
Temperatura 17°C
Humedad 63%
Presión 1002 hPa
Visibilidad 10 km o más
sin nubes por debajo de 1500 m y sin presencia de cumulonimbus.

METAR: EDHL 232020Z VRB02KT CAVOK 17/10 Q1002

Hora: 04:47 (02:47 UTC)

Pronóstico

El informe se hizo hace 9 horas y 47 minutos, a las 17:00 UTC
Pronóstico válido del 23 a las 18 UTC al 23 a las 21 UTC
Viento 3 kt del sur
Visibilidad 10 km o más
sin nubes por debajo de 1500 m y sin presencia de cumulonimbus.

TAF: EDHL 231700Z 2318/2321 17003KT CAVOK

Observaciones y pronósticos meteorológicos de más de 4000 aeropuertos (mensajes METAR y TAF).

Los puntos amarillos y rojos representan las estaciones disponibles.

Ponga el ratón en el punto deseado para ver el nombre de la estación.

Haga clic para ver las observaciones y los pronósticos meteorológicos.

Para cambiar el mapa : haga clic en los botones verdes con una cruz de color negro para hacer un zoom, en el botón verde con un guión para alejar o en las flechas verdes para mapas adyacentes.


METAR-TAF: